createdAt,value
2022-07-25T00:02:19.900Z,7.75
2022-07-25T00:04:49.533Z,9.38
2022-07-25T00:07:17.393Z,13.52
2022-07-25T00:09:45.285Z,9.98
2022-07-25T00:12:13.962Z,8.20
2022-07-25T00:14:41.844Z,8.07
2022-07-25T00:17:11.113Z,7.80
2022-07-25T00:19:39.024Z,7.32
2022-07-25T00:22:06.974Z,9.80
2022-07-25T00:24:35.184Z,8.70
2022-07-25T00:27:03.825Z,13.05
2022-07-25T00:29:31.763Z,8.15
2022-07-25T00:31:59.870Z,9.45
2022-07-25T00:34:28.998Z,11.05
2022-07-25T00:36:56.843Z,7.75
2022-07-25T00:39:24.676Z,9.15
2022-07-25T00:41:52.505Z,8.68
2022-07-25T00:44:25.287Z,9.90
2022-07-25T00:46:53.482Z,8.35
2022-07-25T00:49:21.361Z,7.43
2022-07-25T00:51:51.456Z,8.52
2022-07-25T00:54:19.730Z,9.55
2022-07-25T00:56:47.670Z,8.13
2022-07-25T00:59:16.659Z,8.60
2022-07-25T01:01:45.679Z,10.77
2022-07-25T01:04:13.626Z,10.40
2022-07-25T01:06:41.636Z,7.65
2022-07-25T01:09:10.899Z,9.98
2022-07-25T01:11:39.353Z,8.82
2022-07-25T01:14:08.032Z,8.23
2022-07-25T01:16:36.428Z,7.28
2022-07-25T01:19:04.594Z,8.07
2022-07-25T01:21:33.832Z,8.00
2022-07-25T01:24:01.796Z,9.77
2022-07-25T01:26:30.550Z,9.15
2022-07-25T01:28:58.547Z,8.07
2022-07-25T01:31:26.685Z,8.02
2022-07-25T01:33:54.583Z,8.77
2022-07-25T01:36:22.484Z,10.05
2022-07-25T01:38:51.703Z,7.82
2022-07-25T01:41:22.671Z,9.85
2022-07-25T01:43:50.899Z,13.40
2022-07-25T01:46:18.879Z,7.85
2022-07-25T01:48:46.873Z,8.50
2022-07-25T01:51:14.855Z,9.77
2022-07-25T01:53:48.633Z,8.15
2022-07-25T01:56:18.127Z,7.25
2022-07-25T01:58:49.769Z,7.90
2022-07-25T02:01:17.681Z,8.93
2022-07-25T02:03:49.403Z,7.82
2022-07-25T02:06:18.889Z,11.05
2022-07-25T02:08:46.899Z,8.77
2022-07-25T02:11:14.857Z,9.52
2022-07-25T02:13:44.668Z,10.25
2022-07-25T02:16:12.869Z,11.52
2022-07-25T02:18:40.957Z,9.45
2022-07-25T02:21:14.507Z,9.73
2022-07-25T02:23:43.282Z,11.18
2022-07-25T02:26:11.737Z,8.18
2022-07-25T02:28:39.885Z,10.23
2022-07-25T02:31:09.727Z,11.20
2022-07-25T02:33:38.022Z,11.38
2022-07-25T02:36:06.107Z,11.52
2022-07-25T02:38:33.972Z,8.68
2022-07-25T02:41:02.190Z,9.52
2022-07-25T02:43:29.990Z,8.45
2022-07-25T02:45:58.057Z,9.05
2022-07-25T02:48:27.374Z,9.43
2022-07-25T02:50:55.191Z,9.88
2022-07-25T02:53:46.800Z,9.38
2022-07-25T02:56:10.831Z,9.82
2022-07-25T02:58:39.343Z,9.00
2022-07-25T03:01:07.884Z,9.05
2022-07-25T03:03:37.258Z,10.20
2022-07-25T03:06:05.483Z,11.90
2022-07-25T03:08:33.418Z,10.27
2022-07-25T03:11:01.245Z,10.07
2022-07-25T03:13:28.969Z,9.30
2022-07-25T03:15:57.042Z,10.80
2022-07-25T03:18:24.797Z,11.30
2022-07-25T03:20:53.995Z,11.18
2022-07-25T03:23:21.767Z,11.30
2022-07-25T03:25:49.669Z,10.07
2022-07-25T03:28:17.467Z,10.38
2022-07-25T03:30:45.384Z,9.45
2022-07-25T03:33:13.160Z,11.63
2022-07-25T03:35:41.046Z,9.30
2022-07-25T03:38:10.313Z,8.98
2022-07-25T03:40:38.314Z,12.48
2022-07-25T03:43:06.415Z,10.13
2022-07-25T03:45:34.277Z,9.05
2022-07-25T03:48:02.098Z,13.38
2022-07-25T03:50:29.953Z,11.13
2022-07-25T03:52:57.779Z,10.73
2022-07-25T03:55:27.891Z,10.52
2022-07-25T03:57:55.696Z,11.07
2022-07-25T04:00:23.433Z,11.95
2022-07-25T04:02:51.353Z,10.13
2022-07-25T04:05:19.194Z,12.30
2022-07-25T04:07:46.907Z,12.18
2022-07-25T04:10:14.746Z,14.38
2022-07-25T04:12:45.601Z,11.90
2022-07-25T04:15:13.726Z,15.50
2022-07-25T04:17:41.495Z,12.55
2022-07-25T04:20:10.172Z,11.32
2022-07-25T04:22:40.092Z,14.52
2022-07-25T04:25:10.472Z,11.98
2022-07-25T04:27:38.415Z,11.75
2022-07-25T04:30:08.807Z,12.00
2022-07-25T04:32:36.564Z,24.48
2022-07-25T04:35:04.662Z,10.45
2022-07-25T04:37:32.766Z,11.30
2022-07-25T04:40:00.508Z,12.05
2022-07-25T04:42:28.358Z,10.55
2022-07-25T04:44:56.208Z,13.05
2022-07-25T04:47:25.327Z,13.15
2022-07-25T04:49:53.490Z,13.20
2022-07-25T04:52:21.937Z,13.55
2022-07-25T04:54:49.917Z,10.20
2022-07-25T04:57:17.854Z,11.30
2022-07-25T04:59:45.727Z,10.68
2022-07-25T05:02:13.567Z,11.32
2022-07-25T05:04:45.292Z,11.45
2022-07-25T05:07:13.466Z,10.32
2022-07-25T05:09:41.497Z,10.70
2022-07-25T05:12:10.106Z,16.23
2022-07-25T05:14:38.580Z,11.77
2022-07-25T05:17:06.565Z,16.42
2022-07-25T05:19:35.070Z,11.85
2022-07-25T05:22:04.624Z,11.90
2022-07-25T05:24:34.364Z,11.93
2022-07-25T05:27:02.291Z,12.13
2022-07-25T05:29:30.085Z,13.32
2022-07-25T05:31:57.960Z,13.52
2022-07-25T05:34:25.872Z,16.40
2022-07-25T05:36:53.658Z,12.60
2022-07-25T05:39:23.022Z,11.65
2022-07-25T05:41:50.822Z,11.73
2022-07-25T05:44:18.815Z,12.75
2022-07-25T05:46:46.831Z,10.40
2022-07-25T05:49:16.051Z,12.77
2022-07-25T05:51:44.039Z,12.50
2022-07-25T05:54:11.819Z,13.32
2022-07-25T05:56:41.045Z,12.85
2022-07-25T05:59:09.181Z,11.75
2022-07-25T06:01:37.287Z,11.07
2022-07-25T06:04:05.711Z,12.82
2022-07-25T06:06:33.707Z,11.00
2022-07-25T06:09:01.428Z,11.23
2022-07-25T06:11:30.945Z,11.35
2022-07-25T06:14:00.284Z,11.53
2022-07-25T06:16:28.448Z,10.63
2022-07-25T06:18:56.368Z,9.70
2022-07-25T06:21:24.233Z,11.63
2022-07-25T06:23:52.019Z,13.75
2022-07-25T06:26:19.961Z,10.80
2022-07-25T06:28:47.817Z,10.98
2022-07-25T06:31:17.215Z,10.38
2022-07-25T06:33:44.998Z,9.77
2022-07-25T06:36:12.856Z,9.80
2022-07-25T06:38:40.644Z,9.15
2022-07-25T06:41:08.442Z,13.90
2022-07-25T06:43:36.328Z,14.07
2022-07-25T06:46:04.093Z,9.15
2022-07-25T06:48:33.264Z,10.70
2022-07-25T06:51:01.073Z,13.63
2022-07-25T06:53:29.303Z,9.50
2022-07-25T06:55:57.132Z,10.70
2022-07-25T06:58:25.934Z,13.13
2022-07-25T07:00:53.946Z,9.57
2022-07-25T07:03:21.974Z,9.80
2022-07-25T07:05:51.401Z,11.55
2022-07-25T07:08:19.274Z,9.33
2022-07-25T07:10:47.284Z,9.45
2022-07-25T07:13:22.249Z,9.63
2022-07-25T07:15:52.453Z,9.57
2022-07-25T07:18:21.392Z,9.32
2022-07-25T07:20:49.294Z,9.82
2022-07-25T07:23:19.199Z,10.23
2022-07-25T07:28:16.499Z,9.32
2022-07-25T07:31:15.811Z,11.40
2022-07-25T07:33:33.415Z,9.07
2022-07-25T07:36:01.307Z,9.38
2022-07-25T07:38:30.603Z,9.95
2022-07-25T07:40:58.476Z,7.70
2022-07-25T07:43:29.952Z,9.55
2022-07-25T07:46:00.760Z,7.75
2022-07-25T07:48:29.432Z,8.60
2022-07-25T07:50:57.647Z,9.23
2022-07-25T07:53:45.711Z,10.50
2022-07-25T07:56:14.994Z,10.25
2022-07-25T07:58:42.957Z,9.88
2022-07-25T08:01:10.887Z,7.72
2022-07-25T08:03:38.867Z,7.75
2022-07-25T08:06:07.510Z,8.02
2022-07-25T08:08:35.569Z,9.60
2022-07-25T08:11:03.427Z,7.63
2022-07-25T08:13:34.086Z,12.07
2022-07-25T08:16:03.574Z,8.93
2022-07-25T08:18:32.861Z,8.45
2022-07-25T08:21:02.947Z,6.80
2022-07-25T08:26:00.725Z,13.55
2022-07-25T08:28:28.888Z,9.15
2022-07-25T08:30:59.003Z,10.68
2022-07-25T08:33:26.949Z,9.45
2022-07-25T08:35:56.424Z,8.25
2022-07-25T08:38:26.172Z,7.90
2022-07-25T08:40:54.380Z,9.52
2022-07-25T08:43:22.450Z,8.48
2022-07-25T08:45:51.851Z,7.10
2022-07-25T08:48:23.422Z,8.85
2022-07-25T08:50:52.254Z,11.60
2022-07-25T08:53:36.902Z,9.63
2022-07-25T08:56:12.647Z,9.85
2022-07-25T08:58:44.604Z,7.35
2022-07-25T09:01:13.611Z,8.50
2022-07-25T09:03:43.447Z,7.93
2022-07-25T09:08:52.717Z,6.95
2022-07-25T09:11:31.266Z,9.35
2022-07-25T09:14:01.470Z,7.50
2022-07-25T09:16:33.925Z,6.88
2022-07-25T09:19:12.050Z,7.13
2022-07-25T09:21:40.918Z,7.13
2022-07-25T09:24:14.097Z,6.75
2022-07-25T09:26:49.717Z,7.85
2022-07-25T09:29:23.606Z,7.05
2022-07-25T09:31:52.429Z,7.07
2022-07-25T09:34:37.813Z,9.05
2022-07-25T09:37:07.807Z,8.25
2022-07-25T09:39:46.091Z,7.43
2022-07-25T09:42:22.471Z,6.25
2022-07-25T09:45:06.522Z,7.05
2022-07-25T09:47:36.653Z,9.60
2022-07-25T09:50:07.475Z,8.00
2022-07-25T09:52:36.752Z,9.82
2022-07-25T09:55:06.384Z,9.35
2022-07-25T09:57:34.205Z,6.20
2022-07-25T10:00:02.662Z,6.47
2022-07-25T10:02:48.622Z,9.25
2022-07-25T10:05:26.783Z,6.75
2022-07-25T10:07:56.284Z,6.10
2022-07-25T10:10:30.521Z,7.13
2022-07-25T10:13:09.508Z,7.60
2022-07-25T10:15:47.393Z,5.70
2022-07-25T10:18:16.825Z,8.02
2022-07-25T10:20:47.186Z,6.70
2022-07-25T10:23:21.944Z,11.35
2022-07-25T10:26:01.303Z,5.63
2022-07-25T10:28:38.841Z,5.13
2022-07-25T10:31:17.220Z,7.22
2022-07-25T10:33:49.583Z,5.63
2022-07-25T10:36:19.498Z,4.65
2022-07-25T10:38:48.022Z,5.63
2022-07-25T10:41:17.489Z,5.97
2022-07-25T10:43:48.670Z,4.90
2022-07-25T10:46:20.488Z,4.97
2022-07-25T10:48:59.114Z,5.20
2022-07-25T10:51:30.078Z,7.88
2022-07-25T10:53:58.719Z,7.07
2022-07-25T10:56:28.714Z,9.48
2022-07-25T10:58:58.369Z,7.00
2022-07-25T11:03:56.471Z,4.90
2022-07-25T11:06:34.564Z,4.88
2022-07-25T11:09:03.678Z,4.80
2022-07-25T11:11:40.459Z,6.32
2022-07-25T11:14:16.582Z,5.22
2022-07-25T11:16:46.271Z,4.25
2022-07-25T11:19:22.469Z,7.10
2022-07-25T11:21:53.560Z,6.35
2022-07-25T11:24:21.782Z,4.47
2022-07-25T11:26:51.615Z,5.10
2022-07-25T11:29:20.763Z,4.20
2022-07-25T11:31:56.564Z,4.82
2022-07-25T11:34:28.356Z,5.15
2022-07-25T11:36:59.747Z,5.07
2022-07-25T11:39:28.724Z,6.03
2022-07-25T11:42:01.609Z,6.13
2022-07-25T11:44:33.974Z,4.85
2022-07-25T11:47:02.195Z,3.70
2022-07-25T11:49:30.223Z,6.72
2022-07-25T11:51:59.397Z,3.97
2022-07-25T11:54:27.235Z,4.30
2022-07-25T11:56:55.108Z,4.50
2022-07-25T11:59:22.919Z,4.38
2022-07-25T12:01:51.390Z,6.07
2022-07-25T12:04:20.909Z,5.85
2022-07-25T12:06:50.251Z,6.28
2022-07-25T12:09:21.704Z,4.63
2022-07-25T12:11:50.422Z,4.68
2022-07-25T12:14:18.326Z,8.47
2022-07-25T12:16:46.199Z,3.97
2022-07-25T12:19:22.599Z,5.53
2022-07-25T12:21:50.883Z,4.70
2022-07-25T12:24:20.777Z,6.60
2022-07-25T12:26:49.259Z,3.60
2022-07-25T12:29:17.419Z,3.65
2022-07-25T12:31:45.816Z,4.50
2022-07-25T12:34:14.428Z,4.38
2022-07-25T12:36:45.200Z,5.75
2022-07-25T12:39:13.656Z,4.20
2022-07-25T12:41:45.633Z,3.90
2022-07-25T12:44:15.297Z,5.30
2022-07-25T12:46:49.106Z,4.22
2022-07-25T12:49:18.080Z,4.35
2022-07-25T12:51:46.560Z,4.32
2022-07-25T12:54:21.710Z,4.47
2022-07-25T12:56:52.517Z,3.58
2022-07-25T12:59:21.263Z,4.20
2022-07-25T13:01:49.823Z,6.10
2022-07-25T13:04:18.515Z,6.15
2022-07-25T13:06:46.975Z,4.00
2022-07-25T13:09:15.493Z,4.28
2022-07-25T13:11:46.569Z,5.72
2022-07-25T13:14:21.564Z,5.25
2022-07-25T13:16:50.036Z,5.28
2022-07-25T13:19:21.103Z,6.63
2022-07-25T13:21:49.944Z,5.00
2022-07-25T13:24:21.827Z,6.10
2022-07-25T13:26:50.272Z,4.32
2022-07-25T13:29:20.234Z,6.72
2022-07-25T13:31:50.940Z,5.03
2022-07-25T13:34:20.322Z,4.63
2022-07-25T13:36:49.349Z,5.88
2022-07-25T13:39:18.061Z,6.77
2022-07-25T13:41:48.698Z,4.80
2022-07-25T13:44:17.529Z,6.07
2022-07-25T13:46:49.994Z,6.97
2022-07-25T13:49:18.815Z,4.60
2022-07-25T13:51:47.645Z,4.90
2022-07-25T13:54:17.117Z,6.13
2022-07-25T13:56:45.704Z,4.38
2022-07-25T13:59:20.501Z,6.00
2022-07-25T14:01:50.834Z,5.45
2022-07-25T14:04:18.764Z,6.00
2022-07-25T14:06:51.810Z,4.80
2022-07-25T14:09:21.041Z,5.78
2022-07-25T14:11:49.543Z,4.38
2022-07-25T14:14:18.051Z,5.30
2022-07-25T14:16:46.078Z,7.10
2022-07-25T14:19:16.014Z,3.78
2022-07-25T14:21:43.954Z,4.35
2022-07-25T14:24:11.794Z,6.85
2022-07-25T14:26:39.642Z,8.07
2022-07-25T14:29:11.108Z,7.75
2022-07-25T14:31:40.877Z,4.80
2022-07-25T14:36:37.833Z,6.85
2022-07-25T14:39:06.696Z,5.32
2022-07-25T14:44:03.184Z,4.32
2022-07-25T14:46:31.114Z,4.90
2022-07-25T14:48:59.306Z,4.80
2022-07-25T14:51:28.550Z,5.25
2022-07-25T14:53:57.737Z,6.50
2022-07-25T14:56:25.677Z,5.68
2022-07-25T14:58:53.453Z,4.65
2022-07-25T15:01:24.344Z,6.38
2022-07-25T15:03:52.582Z,4.45
2022-07-25T15:06:21.814Z,5.47
2022-07-25T15:08:52.005Z,7.57
2022-07-25T15:11:21.881Z,5.88
2022-07-25T15:16:19.092Z,8.48
2022-07-25T15:19:14.665Z,5.70
2022-07-25T15:21:35.316Z,6.47
2022-07-25T15:24:03.253Z,6.85
2022-07-25T15:26:32.687Z,5.95
2022-07-25T15:29:00.513Z,6.78
2022-07-25T15:31:28.956Z,7.55
2022-07-25T15:33:56.975Z,8.73
2022-07-25T15:36:29.351Z,6.75
2022-07-25T15:38:58.026Z,5.82
2022-07-25T15:41:26.659Z,7.30
2022-07-25T15:43:55.942Z,5.75
2022-07-25T15:46:23.945Z,7.25
2022-07-25T15:48:51.811Z,7.80
2022-07-25T15:51:20.217Z,6.78
2022-07-25T15:53:48.057Z,8.00
2022-07-25T15:56:16.339Z,6.00
2022-07-25T15:58:44.304Z,6.65
2022-07-25T16:01:13.463Z,7.75
2022-07-25T16:03:41.357Z,8.75
2022-07-25T16:06:09.410Z,6.30
2022-07-25T16:08:37.913Z,8.85
2022-07-25T16:11:06.315Z,5.85
2022-07-25T16:13:34.233Z,9.15
2022-07-25T16:16:02.086Z,9.90
2022-07-25T16:18:32.272Z,8.55
2022-07-25T16:21:00.224Z,9.10
2022-07-25T16:23:28.241Z,6.53
2022-07-25T16:25:56.311Z,5.95
2022-07-25T16:28:24.262Z,7.72
2022-07-25T16:30:52.275Z,6.03
2022-07-25T16:33:20.214Z,7.15
2022-07-25T16:35:49.557Z,7.57
2022-07-25T16:38:17.877Z,7.97
2022-07-25T16:40:46.072Z,6.65
2022-07-25T16:43:13.899Z,7.45
2022-07-25T16:45:43.010Z,7.38
2022-07-25T16:48:10.895Z,8.95
2022-07-25T16:50:38.726Z,6.63
2022-07-25T16:53:08.210Z,8.25
2022-07-25T16:55:36.031Z,10.52
2022-07-25T16:58:03.872Z,7.10
2022-07-25T17:00:31.803Z,6.60
2022-07-25T17:02:59.748Z,9.50
2022-07-25T17:05:27.873Z,8.98
2022-07-25T17:07:59.552Z,10.90
2022-07-25T17:10:29.906Z,8.60
2022-07-25T17:12:57.905Z,8.57
2022-07-25T17:15:25.912Z,8.02
2022-07-25T17:17:53.704Z,6.32
2022-07-25T17:20:21.790Z,9.23
2022-07-25T17:22:49.797Z,9.88
2022-07-25T17:25:17.766Z,10.88
2022-07-25T17:27:46.952Z,7.90
2022-07-25T17:30:14.986Z,6.93
2022-07-25T17:32:42.826Z,7.15
2022-07-25T17:35:10.976Z,8.55
2022-07-25T17:37:38.867Z,7.25
2022-07-25T17:40:07.757Z,7.78
2022-07-25T17:42:35.558Z,7.82
2022-07-25T17:45:06.983Z,8.40
2022-07-25T17:47:35.243Z,12.30
2022-07-25T17:50:03.330Z,10.57
2022-07-25T17:52:31.244Z,8.82
2022-07-25T17:54:59.604Z,7.95
2022-07-25T17:57:27.521Z,8.27
2022-07-25T17:59:55.327Z,6.32
2022-07-25T18:02:24.657Z,7.63
2022-07-25T18:04:53.659Z,7.97
2022-07-25T18:07:21.798Z,8.15
2022-07-25T18:09:49.588Z,6.78
2022-07-25T18:12:17.411Z,7.10
2022-07-25T18:14:45.232Z,8.07
2022-07-25T18:17:13.275Z,9.85
2022-07-25T18:19:42.416Z,10.75
2022-07-25T18:22:10.212Z,7.70
2022-07-25T18:24:38.393Z,9.25
2022-07-25T18:27:06.759Z,8.23
2022-07-25T18:29:37.215Z,6.90
2022-07-25T18:32:05.571Z,6.55
2022-07-25T18:34:33.993Z,6.40
2022-07-25T18:37:03.413Z,10.20
2022-07-25T18:39:31.504Z,6.35
2022-07-25T18:41:59.994Z,9.23
2022-07-25T18:44:28.119Z,10.02
2022-07-25T18:46:57.087Z,6.97
2022-07-25T18:49:27.098Z,10.15
2022-07-25T18:51:54.909Z,11.45
2022-07-25T18:54:24.348Z,11.13
2022-07-25T18:56:52.207Z,13.88
2022-07-25T18:59:20.207Z,10.75
2022-07-25T19:01:50.014Z,6.60
2022-07-25T19:04:18.244Z,10.05
2022-07-25T19:06:46.221Z,8.13
2022-07-25T19:09:14.204Z,9.70
2022-07-25T19:11:43.338Z,13.40
2022-07-25T19:14:11.465Z,11.30
2022-07-25T19:16:39.307Z,10.52
2022-07-25T19:19:09.556Z,8.10
2022-07-25T19:24:06.459Z,9.15
2022-07-25T19:26:34.470Z,10.45
2022-07-25T19:29:06.129Z,5.80
2022-07-25T19:31:34.306Z,7.85
2022-07-25T19:34:02.267Z,8.00
2022-07-25T19:36:29.995Z,6.90
2022-07-25T19:38:57.736Z,6.10
2022-07-25T19:41:26.218Z,7.50
2022-07-25T19:43:54.869Z,9.88
2022-07-25T19:46:25.027Z,7.50
2022-07-25T19:51:20.866Z,4.90
2022-07-25T19:53:48.777Z,5.97
2022-07-25T19:56:16.709Z,6.25
2022-07-25T19:58:45.273Z,4.90
2022-07-25T20:01:13.343Z,4.15
2022-07-25T20:03:42.666Z,9.45
2022-07-25T20:06:10.854Z,7.30
2022-07-25T20:08:40.192Z,4.10
2022-07-25T20:11:08.282Z,7.77
2022-07-25T20:13:36.395Z,5.50
2022-07-25T20:16:04.819Z,15.93
2022-07-25T20:18:32.789Z,6.18
2022-07-25T20:21:02.323Z,7.63
2022-07-25T20:23:30.723Z,5.65
2022-07-25T20:26:00.065Z,4.60
2022-07-25T20:28:27.873Z,6.60
2022-07-25T20:30:56.281Z,4.85
2022-07-25T20:33:27.021Z,7.47
2022-07-25T20:35:55.077Z,4.45
2022-07-25T20:38:25.481Z,6.88
2022-07-25T20:40:54.856Z,5.55
2022-07-25T20:43:23.266Z,5.38
2022-07-25T20:45:51.261Z,6.75
2022-07-25T20:48:19.176Z,4.75
2022-07-25T20:50:47.048Z,6.78
2022-07-25T20:53:14.891Z,8.50
2022-07-25T20:55:44.275Z,7.78
2022-07-25T20:58:12.143Z,7.87
2022-07-25T21:00:40.098Z,6.68
2022-07-25T21:03:08.394Z,7.80
2022-07-25T21:05:37.634Z,7.65
2022-07-25T21:08:05.775Z,6.57
2022-07-25T21:10:33.601Z,10.02
2022-07-25T21:13:02.840Z,6.47
2022-07-25T21:15:31.630Z,7.43
2022-07-25T21:17:59.739Z,8.55
2022-07-25T21:20:27.635Z,8.57
2022-07-25T21:22:56.349Z,7.55
2022-07-25T21:25:24.271Z,11.48
2022-07-25T21:27:52.343Z,5.68
2022-07-25T21:30:21.926Z,13.32
2022-07-25T21:32:49.778Z,8.27
2022-07-25T21:35:18.146Z,5.75
2022-07-25T21:37:45.945Z,7.72
2022-07-25T21:40:13.952Z,6.25
2022-07-25T21:42:43.051Z,4.72
2022-07-25T21:45:11.930Z,5.72
2022-07-25T21:47:41.498Z,6.68
2022-07-25T21:50:30.185Z,11.82
2022-07-25T21:52:59.443Z,4.60
2022-07-25T21:55:27.445Z,9.18
2022-07-25T21:57:55.357Z,6.53
2022-07-25T22:00:23.682Z,7.60
2022-07-25T22:02:53.100Z,7.53
2022-07-25T22:05:21.342Z,6.00
2022-07-25T22:07:49.715Z,5.45
2022-07-25T22:10:19.682Z,5.43
2022-07-25T22:12:47.837Z,5.63
2022-07-25T22:15:16.226Z,8.07
2022-07-25T22:17:48.770Z,9.70
2022-07-25T22:20:19.638Z,6.50
2022-07-25T22:22:47.839Z,4.78
2022-07-25T22:25:15.955Z,6.63
2022-07-25T22:27:43.815Z,6.20
2022-07-25T22:30:18.299Z,6.47
2022-07-25T22:32:47.760Z,8.50
2022-07-25T22:35:15.785Z,8.82
2022-07-25T22:37:45.446Z,7.15
2022-07-25T22:40:14.701Z,5.90
2022-07-25T22:42:42.774Z,4.80
2022-07-25T22:45:11.647Z,6.43
2022-07-25T22:47:39.614Z,10.18
2022-07-25T22:50:09.563Z,6.38
2022-07-25T22:52:37.343Z,10.80
2022-07-25T22:55:07.310Z,8.25
2022-07-25T22:57:37.121Z,6.35
2022-07-25T23:02:34.786Z,4.05
2022-07-25T23:05:02.678Z,4.72
2022-07-25T23:07:30.455Z,4.68
2022-07-25T23:09:58.234Z,8.70
2022-07-25T23:12:27.383Z,6.60
2022-07-25T23:14:55.220Z,5.80
2022-07-25T23:17:24.613Z,5.25
2022-07-25T23:19:54.846Z,11.35
2022-07-25T23:24:51.067Z,5.57
2022-07-25T23:27:19.313Z,8.57
2022-07-25T23:29:48.482Z,6.72
2022-07-25T23:32:16.447Z,10.02
2022-07-25T23:34:44.958Z,4.15
2022-07-25T23:37:12.915Z,5.88
2022-07-25T23:39:40.991Z,5.18
2022-07-25T23:42:08.903Z,7.53
2022-07-25T23:44:36.666Z,7.53
2022-07-25T23:47:10.080Z,7.10
2022-07-25T23:49:38.594Z,6.82
2022-07-25T23:52:06.861Z,7.28
2022-07-25T23:54:35.685Z,7.80
2022-07-25T23:57:03.762Z,7.70
2022-07-25T23:59:31.944Z,4.47
